createdAt,value
2019-03-11T00:02:37.964Z,14.8
2019-03-11T00:07:33.660Z,14.9
2019-03-11T00:12:29.434Z,14.1
2019-03-11T00:17:25.416Z,14.7
2019-03-11T00:22:21.184Z,12
2019-03-11T00:27:16.972Z,14.5
2019-03-11T00:32:13.049Z,13.7
2019-03-11T00:37:08.875Z,14.5
2019-03-11T00:42:04.509Z,13.8
2019-03-11T00:47:00.292Z,14.3
2019-03-11T00:51:55.848Z,14.3
2019-03-11T00:56:51.284Z,14.3
2019-03-11T01:01:47.212Z,14.3
2019-03-11T01:06:42.803Z,14.4
2019-03-11T01:11:38.468Z,14.3
2019-03-11T01:16:34.082Z,14.3
2019-03-11T01:21:29.615Z,14.3
2019-03-11T01:26:25.392Z,14.3
2019-03-11T01:31:20.943Z,14.2
2019-03-11T01:36:16.779Z,14.1
2019-03-11T01:41:12.255Z,14.1
2019-03-11T01:46:07.897Z,14
2019-03-11T01:51:03.455Z,13.9
2019-03-11T01:55:59.166Z,13.7
2019-03-11T02:00:54.734Z,13.7
2019-03-11T02:05:50.400Z,13.6
2019-03-11T02:10:45.836Z,13.4
2019-03-11T02:15:40.941Z,13.4
2019-03-11T02:20:36.723Z,13.3
2019-03-11T02:25:32.344Z,13.2
2019-03-11T02:30:27.883Z,13.2
2019-03-11T02:35:23.607Z,13.2
2019-03-11T02:40:19.452Z,13.1
2019-03-11T02:45:14.933Z,13.1
2019-03-11T02:50:10.786Z,13
2019-03-11T02:55:06.476Z,12.9
2019-03-11T03:00:02.158Z,12.9
2019-03-11T03:04:58.502Z,12.1
2019-03-11T03:09:53.743Z,12.3
2019-03-11T03:14:49.186Z,12.8
2019-03-11T03:19:44.415Z,12.7
2019-03-11T03:24:40.202Z,12.6
2019-03-11T03:29:36.284Z,12.6
2019-03-11T03:34:32.106Z,12.6
2019-03-11T03:39:27.979Z,12.6
2019-03-11T03:44:23.942Z,12.6
2019-03-11T03:49:19.530Z,12.6
2019-03-11T03:54:15.401Z,12.6
2019-03-11T03:59:11.178Z,12.6
2019-03-11T04:04:06.902Z,12.3
2019-03-11T04:09:02.743Z,11.7
2019-03-11T04:13:58.366Z,11.7
2019-03-11T04:18:54.217Z,12.4
2019-03-11T04:23:49.905Z,12.4
2019-03-11T04:28:45.365Z,11.6
2019-03-11T04:33:41.234Z,11.6
2019-03-11T04:38:37.474Z,12.3
2019-03-11T04:43:33.289Z,11.5
2019-03-11T04:48:32.770Z,12.3
2019-03-11T04:53:27.538Z,11.6
2019-03-11T04:58:23.518Z,11.6
2019-03-11T05:03:19.285Z,12.3
2019-03-11T05:08:15.113Z,11.6
2019-03-11T05:13:10.977Z,11.6
2019-03-11T05:18:06.897Z,11.8
2019-03-11T05:23:02.827Z,11.8
2019-03-11T05:27:58.901Z,12.6
2019-03-11T05:32:52.593Z,11.9
2019-03-11T05:37:48.668Z,12.6
2019-03-11T05:42:44.173Z,12.5
2019-03-11T05:47:40.043Z,11.8
2019-03-11T05:52:35.886Z,11.9
2019-03-11T05:57:31.739Z,11.6
2019-03-11T06:02:27.667Z,11.7
2019-03-11T06:07:23.294Z,12.5
2019-03-11T06:12:19.026Z,11.7
2019-03-11T06:17:15.035Z,12.6
2019-03-11T06:22:10.864Z,11.9
2019-03-11T06:27:06.991Z,12
2019-03-11T06:32:03.379Z,12.1
2019-03-11T06:41:55.717Z,12.3
2019-03-11T06:46:52.042Z,12.3
2019-03-11T06:51:47.932Z,12.4
2019-03-11T06:56:43.933Z,12.5
2019-03-11T07:01:39.613Z,13.3
2019-03-11T07:06:35.130Z,13.3
2019-03-11T07:11:30.855Z,13.3
2019-03-11T07:16:27.138Z,12.6
2019-03-11T07:21:23.241Z,12.8
2019-03-11T07:26:19.832Z,12.8
2019-03-11T07:31:15.843Z,12.9
2019-03-11T07:36:11.950Z,13.1
2019-03-11T07:41:07.961Z,13.9
2019-03-11T07:46:03.853Z,13.9
2019-03-11T07:55:55.742Z,14.1
2019-03-11T08:00:54.036Z,14.2
2019-03-11T08:05:46.825Z,14.3
2019-03-11T08:10:43.035Z,14.4
2019-03-11T08:15:39.220Z,14.4
2019-03-11T08:20:35.294Z,6.7
2019-03-11T08:25:31.017Z,14.6
2019-03-11T08:30:27.213Z,14
2019-03-11T08:35:23.398Z,14.8
2019-03-11T08:40:19.552Z,14.9
2019-03-11T08:45:15.814Z,15
2019-03-11T08:50:11.713Z,15
2019-03-11T08:55:07.768Z,15.2
2019-03-11T09:00:04.477Z,14.5
2019-03-11T09:05:00.356Z,15.3
2019-03-11T09:09:56.350Z,15.5
2019-03-11T09:14:52.351Z,15.6
2019-03-11T09:19:48.088Z,15.4
2019-03-11T09:24:44.792Z,15.8
2019-03-11T09:29:40.351Z,15.9
2019-03-11T09:34:36.489Z,15.9
2019-03-11T09:39:32.704Z,15.9
2019-03-11T09:44:28.547Z,15.9
2019-03-11T09:49:24.690Z,15.2
2019-03-11T09:54:20.795Z,15.9
2019-03-11T09:59:16.666Z,15.9
2019-03-11T10:04:12.449Z,15.9
2019-03-11T10:09:08.379Z,15.8
2019-03-11T10:14:04.300Z,15.1
2019-03-11T10:19:00.734Z,15.3
2019-03-11T10:23:56.294Z,15.6
2019-03-11T10:28:52.238Z,15.6
2019-03-11T10:33:47.874Z,15.7
2019-03-11T10:38:44.037Z,15.8
2019-03-11T10:43:39.507Z,15.9
2019-03-11T10:48:37.351Z,16
2019-03-11T10:53:32.217Z,16
2019-03-11T10:58:29.142Z,15.8
2019-03-11T11:03:23.782Z,16.1
2019-03-11T11:08:19.173Z,16.1
2019-03-11T11:13:15.015Z,16.1
2019-03-11T11:18:11.157Z,16.3
2019-03-11T11:23:07.209Z,16.6
2019-03-11T11:28:03.509Z,16.9
2019-03-11T11:32:59.457Z,16.9
2019-03-11T11:37:55.449Z,16.8
2019-03-11T11:42:51.727Z,16.7
2019-03-11T11:47:47.977Z,16.8
2019-03-11T11:52:43.774Z,17.2
2019-03-11T11:57:40.119Z,17.6
2019-03-11T12:02:36.528Z,17.9
2019-03-11T12:07:32.928Z,18.2
2019-03-11T12:12:29.009Z,17.7
2019-03-11T12:17:25.494Z,18.1
2019-03-11T12:22:21.167Z,17.8
2019-03-11T12:27:17.092Z,17.7
2019-03-11T12:32:13.193Z,17.6
2019-03-11T12:37:09.057Z,17.5
2019-03-11T12:42:05.266Z,17.5
2019-03-11T12:47:01.409Z,17.5
2019-03-11T12:51:57.439Z,17.5
2019-03-11T12:56:53.174Z,17.8
2019-03-11T13:01:48.414Z,18.1
2019-03-11T13:06:44.545Z,18.1
2019-03-11T13:11:40.581Z,18
2019-03-11T13:16:35.979Z,17.8
2019-03-11T13:21:32.286Z,17.6
2019-03-11T13:26:28.138Z,17.1
2019-03-11T13:31:24.090Z,17.5
2019-03-11T13:36:20.193Z,17.6
2019-03-11T13:41:16.066Z,17.7
2019-03-11T13:46:11.726Z,17.7
2019-03-11T13:51:07.987Z,17.6
2019-03-11T13:56:04.021Z,17.5
2019-03-11T14:00:59.741Z,17.3
2019-03-11T14:05:55.971Z,17.2
2019-03-11T14:10:51.613Z,16.9
2019-03-11T14:15:47.333Z,16.6
2019-03-11T14:20:43.025Z,16.6
2019-03-11T14:25:38.804Z,16.4
2019-03-11T14:30:34.591Z,16.3
2019-03-11T14:35:30.474Z,16.1
2019-03-11T14:40:25.756Z,15.9
2019-03-11T14:45:21.705Z,15.7
2019-03-11T14:50:17.598Z,15.5
2019-03-11T14:55:13.174Z,15.2
2019-03-11T15:00:09.002Z,15
2019-03-11T15:05:04.779Z,14.7
2019-03-11T15:10:00.630Z,13.8
2019-03-11T15:14:56.643Z,14.2
2019-03-11T15:19:53.001Z,13.4
2019-03-11T15:24:48.883Z,13.8
2019-03-11T15:29:44.702Z,13.5
2019-03-11T15:34:40.471Z,13.4
2019-03-11T15:39:36.301Z,13.1
2019-03-11T15:44:32.297Z,12.9
2019-03-11T15:49:29.580Z,12.7
2019-03-11T15:54:25.906Z,12.5
2019-03-11T15:59:21.820Z,12.4
2019-03-11T16:04:17.875Z,12.2
2019-03-11T16:09:18.966Z,12
2019-03-11T16:14:09.574Z,11.1
2019-03-11T16:19:05.606Z,11.8
2019-03-11T16:24:01.788Z,10.8
2019-03-11T16:28:57.877Z,10.6
2019-03-11T16:33:53.483Z,11.4
2019-03-11T16:38:48.778Z,11.3
2019-03-11T16:43:45.074Z,11.2
2019-03-11T16:48:41.209Z,10.9
2019-03-11T16:53:37.547Z,11
2019-03-11T16:58:33.747Z,11
2019-03-11T17:03:32.425Z,8.7
2019-03-11T17:08:26.268Z,10.8
2019-03-11T17:13:23.037Z,10.7
2019-03-11T17:18:20.321Z,10.6
2019-03-11T17:23:17.078Z,10.4
2019-03-11T17:28:13.782Z,10.3
2019-03-11T17:33:10.607Z,10.1
2019-03-11T17:38:06.472Z,9.3
2019-03-11T17:43:02.842Z,9.7
2019-03-11T17:47:58.690Z,9.1
2019-03-11T17:52:54.127Z,8.9
2019-03-11T17:57:50.650Z,9.5
2019-03-11T18:02:45.871Z,8.6
2019-03-11T18:07:41.932Z,8.6
2019-03-11T18:12:37.720Z,8.5
2019-03-11T18:17:34.212Z,8.7
2019-03-11T18:22:29.891Z,8.4
2019-03-11T18:27:26.041Z,8.3
2019-03-11T18:32:21.954Z,8
2019-03-11T18:37:18.098Z,8.2
2019-03-11T18:42:21.365Z,8
2019-03-11T18:47:09.715Z,0
2019-03-11T18:52:05.326Z,7.9
2019-03-11T18:57:01.453Z,7.8
2019-03-11T19:01:57.006Z,7.8
2019-03-11T19:06:52.961Z,7.7
2019-03-11T19:11:48.718Z,7.6
2019-03-11T19:16:44.621Z,7.5
2019-03-11T19:21:40.475Z,7.5
2019-03-11T19:26:36.439Z,7.5
2019-03-11T19:31:32.236Z,7.5
2019-03-11T19:36:28.102Z,7.5
2019-03-11T19:41:24.168Z,7.4
2019-03-11T19:46:20.219Z,7.2
2019-03-11T19:51:15.996Z,7
2019-03-11T19:56:12.727Z,8
2019-03-11T20:01:08.298Z,8
2019-03-11T20:06:04.043Z,6.5
2019-03-11T20:11:00.057Z,7.2
2019-03-11T20:15:55.885Z,7.1
2019-03-11T20:20:51.952Z,7
2019-03-11T20:25:48.197Z,7.1
2019-03-11T20:30:45.499Z,7
2019-03-11T20:35:40.696Z,7.8
2019-03-11T20:40:36.599Z,7.2
2019-03-11T20:45:32.569Z,7.6
2019-03-11T20:50:37.498Z,6.8
2019-03-11T20:55:24.131Z,6.7
2019-03-11T21:00:20.059Z,6.6
2019-03-11T21:05:16.293Z,6.7
2019-03-11T21:10:12.302Z,6.7
2019-03-11T21:15:08.492Z,6.7
2019-03-11T21:20:05.390Z,7.6
2019-03-11T21:25:00.957Z,6.7
2019-03-11T21:29:56.924Z,7.3
2019-03-11T21:34:53.079Z,6.7
2019-03-11T21:39:48.511Z,6.7
2019-03-11T21:44:44.666Z,7.5
2019-03-11T21:49:41.101Z,6.8
2019-03-11T21:54:36.458Z,6.7
2019-03-11T21:59:32.228Z,6.6
2019-03-11T22:04:28.271Z,6.7
2019-03-11T22:09:24.140Z,7.3
2019-03-11T22:14:20.194Z,7.2
2019-03-11T22:19:16.020Z,6.1
2019-03-11T22:24:11.927Z,7.1
2019-03-11T22:29:07.499Z,6.6
2019-03-11T22:34:03.593Z,7
2019-03-11T22:38:59.966Z,7.1
2019-03-11T22:43:56.120Z,7.1
2019-03-11T22:48:52.238Z,7
2019-03-11T22:53:51.451Z,7.1
2019-03-11T22:58:44.346Z,7.1
2019-03-11T23:03:40.508Z,7
2019-03-11T23:08:36.326Z,6.9
2019-03-11T23:13:32.316Z,6.9
2019-03-11T23:18:28.216Z,6.8
2019-03-11T23:23:24.325Z,6.7
2019-03-11T23:28:20.134Z,6
2019-03-11T23:33:16.252Z,6.8
2019-03-11T23:38:12.200Z,6.7
2019-03-11T23:43:08.489Z,6.6
2019-03-11T23:48:04.290Z,6.6
2019-03-11T23:53:00.282Z,6.6
2019-03-11T23:57:56.327Z,6.6
